WZZ89 LEMD-EPWR
Flight info
| Callsign | WZZ89 |
|---|---|
| Flight time | N/A |
| Altitude | 36000 |
| Route | PINAR DCT SEGRE DCT YAKXU DCT RONNY/N0388F280 DCT TOPTU/N0433F360 DCT TOU DCT GAI DCT MEN DCT NINUN DCT LATAM DCT ETREK DCT LTP DCT SOPLO DCT OMASI DCT KINNI DCT SOSAL DCT KORED DCT BERSU N871 DITON DCT DEGES DCT GAMSA/N0435F370 DCT KONIN DCT MEBEK DCT NENUM DCT BEPAS DCT APRAQ DCT LEGAZ DCT LAGAR DCT DINOV |
| Aircraft | A21N/M-SDE1E2E3FGIJ1J4RWXY/LB1 |
Departure
| Time | N/A |
|---|---|
| Airport | Adolfo Suárez Madrid–Barajas Airport (LEMD) |
Arrival
| Time | 2026-05-01 09:35 |
|---|---|
| Airport | Copernicus Wrocław Airport (EPWR) |
| Time | Latitude | Longitude | Altitude | Speed | Heading |
|---|---|---|---|---|---|
| 2026-05-01 07:23 | 43.77758 | 1.49252 | 36231 ft | 453 kts | 53° |
| 2026-05-01 07:24 | 43.83343 | 1.59802 | 36235 ft | 453 kts | 53° |
| 2026-05-01 07:24 | 43.87048 | 1.66774 | 36237 ft | 453 kts | 52° |
| 2026-05-01 07:25 | 43.90767 | 1.73818 | 36241 ft | 453 kts | 53° |
| 2026-05-01 07:25 | 43.94482 | 1.80877 | 36242 ft | 453 kts | 53° |
| 2026-05-01 07:26 | 43.98089 | 1.87978 | 36243 ft | 453 kts | 54° |
| 2026-05-01 07:26 | 44.01683 | 1.95158 | 36242 ft | 453 kts | 54° |
| 2026-05-01 07:27 | 44.05273 | 2.02365 | 36245 ft | 453 kts | 54° |
| 2026-05-01 07:27 | 44.08846 | 2.09585 | 36246 ft | 454 kts | 54° |
| 2026-05-01 07:28 | 44.12425 | 2.16755 | 36254 ft | 454 kts | 54° |
| 2026-05-01 07:28 | 44.16006 | 2.24006 | 36260 ft | 454 kts | 54° |
| 2026-05-01 07:29 | 44.19551 | 2.31288 | 36267 ft | 455 kts | 54° |
| 2026-05-01 07:29 | 44.23126 | 2.38561 | 36278 ft | 455 kts | 54° |
| 2026-05-01 07:30 | 44.26726 | 2.45822 | 36284 ft | 455 kts | 54° |
| 2026-05-01 07:30 | 44.30277 | 2.53064 | 36288 ft | 455 kts | 54° |
| 2026-05-01 07:31 | 44.33849 | 2.60364 | 36288 ft | 456 kts | 54° |
| 2026-05-01 07:32 | 44.42770 | 2.78705 | 36283 ft | 456 kts | 54° |
| 2026-05-01 07:33 | 44.48086 | 2.89696 | 36284 ft | 457 kts | 54° |
| 2026-05-01 07:33 | 44.53419 | 3.00770 | 36289 ft | 458 kts | 55° |
| 2026-05-01 07:34 | 44.58739 | 3.11885 | 36289 ft | 458 kts | 54° |
| 2026-05-01 07:35 | 44.62101 | 3.19405 | 36294 ft | 458 kts | 59° |
| 2026-05-01 07:35 | 44.65230 | 3.27211 | 36299 ft | 459 kts | 59° |
| 2026-05-01 07:36 | 44.68353 | 3.35015 | 36298 ft | 459 kts | 59° |
| 2026-05-01 07:36 | 44.71474 | 3.42838 | 36300 ft | 459 kts | 59° |
| 2026-05-01 07:37 | 44.76142 | 3.54533 | 36303 ft | 459 kts | 59° |
| 2026-05-01 07:37 | 44.79255 | 3.62376 | 36305 ft | 459 kts | 59° |
| 2026-05-01 07:38 | 44.82355 | 3.70234 | 36305 ft | 459 kts | 59° |
| 2026-05-01 07:39 | 44.86979 | 3.81995 | 36309 ft | 460 kts | 60° |
| 2026-05-01 07:39 | 44.91622 | 3.93831 | 36313 ft | 460 kts | 60° |
| 2026-05-01 07:40 | 44.94722 | 4.01721 | 36312 ft | 460 kts | 60° |
| 2026-05-01 07:40 | 44.97785 | 4.09585 | 36307 ft | 460 kts | 60° |
| 2026-05-01 07:41 | 45.00862 | 4.17506 | 36306 ft | 460 kts | 60° |
| 2026-05-01 07:42 | 45.05496 | 4.29385 | 36302 ft | 460 kts | 60° |
| 2026-05-01 07:42 | 45.08565 | 4.37339 | 36298 ft | 460 kts | 60° |
| 2026-05-01 07:43 | 45.11614 | 4.45240 | 36293 ft | 461 kts | 60° |
| 2026-05-01 07:43 | 45.16191 | 4.57196 | 36296 ft | 460 kts | 60° |
| 2026-05-01 07:44 | 45.22259 | 4.73167 | 36302 ft | 460 kts | 60° |
| 2026-05-01 07:45 | 45.25278 | 4.81077 | 36299 ft | 458 kts | 60° |
| 2026-05-01 07:45 | 45.28306 | 4.89040 | 36300 ft | 458 kts | 60° |
| 2026-05-01 07:46 | 45.31315 | 4.97006 | 36302 ft | 457 kts | 61° |
| 2026-05-01 07:47 | 45.35801 | 5.08947 | 36313 ft | 456 kts | 61° |
| 2026-05-01 07:47 | 45.38763 | 5.16826 | 36310 ft | 454 kts | 61° |
| 2026-05-01 07:48 | 45.43205 | 5.28680 | 36317 ft | 451 kts | 62° |
| 2026-05-01 07:48 | 45.46134 | 5.36566 | 36316 ft | 449 kts | 62° |
| 2026-05-01 07:49 | 45.51443 | 5.47337 | 36311 ft | 447 kts | 43° |
| 2026-05-01 07:50 | 45.56077 | 5.53227 | 36313 ft | 446 kts | 41° |
| 2026-05-01 07:50 | 45.63024 | 5.62071 | 36314 ft | 445 kts | 42° |
| 2026-05-01 07:51 | 45.67602 | 5.67938 | 36315 ft | 445 kts | 42° |
| 2026-05-01 07:52 | 45.74512 | 5.76782 | 36318 ft | 444 kts | 42° |
| 2026-05-01 07:52 | 45.79130 | 5.82666 | 36319 ft | 444 kts | 43° |
| 2026-05-01 07:53 | 45.86011 | 5.91514 | 36320 ft | 442 kts | 43° |
| 2026-05-01 07:53 | 45.90553 | 5.97376 | 36321 ft | 441 kts | 42° |
| 2026-05-01 07:55 | 46.01930 | 6.12100 | 36318 ft | 439 kts | 43° |
| 2026-05-01 07:56 | 46.12986 | 6.26973 | 36339 ft | 436 kts | 45° |
| 2026-05-01 07:57 | 46.19467 | 6.36180 | 36340 ft | 435 kts | 45° |
| 2026-05-01 07:58 | 46.28065 | 6.48456 | 36327 ft | 434 kts | 45° |
| 2026-05-01 07:59 | 46.36594 | 6.60695 | 36328 ft | 433 kts | 45° |
| 2026-05-01 08:00 | 46.49334 | 6.79082 | 36334 ft | 431 kts | 45° |
| 2026-05-01 08:01 | 46.57594 | 6.91679 | 36358 ft | 431 kts | 51° |
| 2026-05-01 08:02 | 46.63245 | 7.01841 | 36359 ft | 431 kts | 51° |
| 2026-05-01 08:03 | 46.68861 | 7.11963 | 36360 ft | 430 kts | 51° |
| 2026-05-01 08:03 | 46.74489 | 7.22161 | 36360 ft | 430 kts | 51° |
| 2026-05-01 08:04 | 46.81969 | 7.35774 | 36348 ft | 430 kts | 51° |
| 2026-05-01 08:05 | 46.87517 | 7.45972 | 36349 ft | 429 kts | 51° |
| 2026-05-01 08:06 | 46.93085 | 7.56172 | 36349 ft | 427 kts | 51° |
| 2026-05-01 08:07 | 47.00448 | 7.69772 | 36352 ft | 426 kts | 51° |
| 2026-05-01 08:08 | 47.05922 | 7.79916 | 36348 ft | 424 kts | 51° |
| 2026-05-01 08:09 | 47.13183 | 7.93539 | 36364 ft | 423 kts | 53° |
| 2026-05-01 08:09 | 47.16376 | 8.00778 | 36372 ft | 422 kts | 57° |
| 2026-05-01 08:10 | 47.22356 | 8.14789 | 36375 ft | 421 kts | 57° |
| 2026-05-01 08:11 | 47.28554 | 8.29395 | 36370 ft | 420 kts | 57° |
| 2026-05-01 08:12 | 47.30767 | 8.37323 | 36376 ft | 423 kts | 76° |
| 2026-05-01 08:12 | 47.31329 | 8.41513 | 36381 ft | 423 kts | 77° |
| 2026-05-01 08:13 | 47.32934 | 8.54292 | 36381 ft | 423 kts | 77° |
| 2026-05-01 08:13 | 47.34368 | 8.67115 | 36386 ft | 423 kts | 82° |
| 2026-05-01 08:14 | 47.34847 | 8.74290 | 36383 ft | 423 kts | 82° |
| 2026-05-01 08:14 | 47.35513 | 8.84327 | 36377 ft | 423 kts | 82° |
| 2026-05-01 08:15 | 47.36398 | 8.97261 | 36366 ft | 422 kts | 82° |
| 2026-05-01 08:16 | 47.36881 | 9.04423 | 36364 ft | 422 kts | 82° |
| 2026-05-01 08:16 | 47.37456 | 9.13032 | 36359 ft | 421 kts | 82° |
| 2026-05-01 08:17 | 47.38132 | 9.23023 | 36368 ft | 421 kts | 81° |
| 2026-05-01 08:17 | 47.38615 | 9.30222 | 36371 ft | 420 kts | 82° |
| 2026-05-01 08:18 | 47.39164 | 9.38748 | 36371 ft | 420 kts | 82° |
| 2026-05-01 08:19 | 47.40239 | 9.55898 | 36376 ft | 419 kts | 82° |
| 2026-05-01 08:19 | 47.40863 | 9.64432 | 36382 ft | 416 kts | 76° |
| 2026-05-01 08:20 | 47.42715 | 9.72444 | 36373 ft | 412 kts | 65° |
| 2026-05-01 08:20 | 47.44849 | 9.80232 | 36369 ft | 411 kts | 66° |
| 2026-05-01 08:21 | 47.46969 | 9.88079 | 36368 ft | 411 kts | 66° |
| 2026-05-01 08:21 | 47.49072 | 9.95934 | 36356 ft | 411 kts | 66° |
| 2026-05-01 08:22 | 47.51167 | 10.03782 | 36348 ft | 410 kts | 66° |
| 2026-05-01 08:22 | 47.53239 | 10.11570 | 36332 ft | 409 kts | 66° |
| 2026-05-01 08:23 | 47.55301 | 10.19303 | 36329 ft | 409 kts | 66° |
| 2026-05-01 08:23 | 47.57369 | 10.27142 | 36329 ft | 409 kts | 66° |
| 2026-05-01 08:24 | 47.59335 | 10.34601 | 36327 ft | 408 kts | 66° |
| 2026-05-01 08:24 | 47.61392 | 10.42441 | 36331 ft | 408 kts | 66° |
| 2026-05-01 08:25 | 47.63421 | 10.50225 | 36340 ft | 408 kts | 66° |
| 2026-05-01 08:25 | 47.65464 | 10.58067 | 36358 ft | 407 kts | 66° |
| 2026-05-01 08:26 | 47.67503 | 10.65906 | 36358 ft | 407 kts | 66° |
| 2026-05-01 08:26 | 47.69523 | 10.73743 | 36370 ft | 407 kts | 66° |
| 2026-05-01 08:27 | 47.71541 | 10.81606 | 36375 ft | 406 kts | 66° |
| 2026-05-01 08:27 | 47.73539 | 10.89389 | 36376 ft | 406 kts | 66° |
| 2026-05-01 08:28 | 47.75543 | 10.97228 | 36376 ft | 406 kts | 66° |
| 2026-05-01 08:28 | 47.77542 | 11.05058 | 36378 ft | 405 kts | 66° |
| 2026-05-01 08:29 | 47.79532 | 11.12877 | 36377 ft | 404 kts | 66° |
| 2026-05-01 08:29 | 47.81497 | 11.20640 | 36378 ft | 403 kts | 66° |
| 2026-05-01 08:30 | 47.83466 | 11.28448 | 36397 ft | 403 kts | 66° |
| 2026-05-01 08:30 | 47.85440 | 11.36246 | 36401 ft | 402 kts | 64° |
| 2026-05-01 08:31 | 47.87796 | 11.43769 | 36404 ft | 400 kts | 62° |
| 2026-05-01 08:31 | 47.90189 | 11.51193 | 36409 ft | 400 kts | 62° |
| 2026-05-01 08:32 | 47.92578 | 11.58678 | 36415 ft | 400 kts | 62° |
| 2026-05-01 08:32 | 47.94960 | 11.66163 | 36418 ft | 400 kts | 62° |
| 2026-05-01 08:33 | 47.97339 | 11.73654 | 36417 ft | 399 kts | 62° |
| 2026-05-01 08:33 | 47.99696 | 11.81089 | 36423 ft | 399 kts | 62° |
| 2026-05-01 08:34 | 48.02059 | 11.88584 | 36421 ft | 399 kts | 62° |
| 2026-05-01 08:34 | 48.04419 | 11.96071 | 36424 ft | 398 kts | 62° |
| 2026-05-01 08:35 | 48.06772 | 12.03570 | 36424 ft | 398 kts | 62° |
| 2026-05-01 08:35 | 48.09099 | 12.11009 | 36355 ft | 397 kts | 62° |
| 2026-05-01 08:36 | 48.11431 | 12.18490 | 36401 ft | 396 kts | 62° |
| 2026-05-01 08:36 | 48.13755 | 12.25978 | 36421 ft | 396 kts | 62° |
| 2026-05-01 08:37 | 48.16070 | 12.33463 | 36419 ft | 396 kts | 62° |
| 2026-05-01 08:37 | 48.18361 | 12.40888 | 36429 ft | 395 kts | 62° |
| 2026-05-01 08:38 | 48.20668 | 12.48357 | 36436 ft | 395 kts | 62° |
| 2026-05-01 08:38 | 48.23172 | 12.55638 | 36433 ft | 391 kts | 52° |
| 2026-05-01 08:39 | 48.26977 | 12.61355 | 36448 ft | 388 kts | 39° |
| 2026-05-01 08:39 | 48.31147 | 12.66448 | 36446 ft | 388 kts | 39° |
| 2026-05-01 08:40 | 48.37402 | 12.74193 | 36446 ft | 389 kts | 39° |
| 2026-05-01 08:40 | 48.41572 | 12.79389 | 36454 ft | 389 kts | 39° |
| 2026-05-01 08:41 | 48.45710 | 12.84556 | 36456 ft | 389 kts | 39° |
| 2026-05-01 08:41 | 48.49875 | 12.89771 | 36460 ft | 389 kts | 39° |
| 2026-05-01 08:42 | 48.54033 | 12.95087 | 36466 ft | 398 kts | 43° |
| 2026-05-01 08:42 | 48.57937 | 13.01073 | 36458 ft | 393 kts | 44° |
| 2026-05-01 08:43 | 48.61698 | 13.06923 | 36455 ft | 390 kts | 44° |
| 2026-05-01 08:43 | 48.65475 | 13.12790 | 36458 ft | 390 kts | 44° |
| 2026-05-01 08:44 | 48.69247 | 13.18675 | 36458 ft | 390 kts | 44° |
| 2026-05-01 08:44 | 48.73022 | 13.24567 | 36454 ft | 390 kts | 44° |
| 2026-05-01 08:45 | 48.76773 | 13.30428 | 36459 ft | 390 kts | 45° |
| 2026-05-01 08:45 | 48.80537 | 13.36337 | 36457 ft | 390 kts | 45° |
| 2026-05-01 08:46 | 48.84299 | 13.42257 | 36459 ft | 390 kts | 45° |
| 2026-05-01 08:46 | 48.88064 | 13.48182 | 36461 ft | 390 kts | 44° |
| 2026-05-01 08:47 | 48.92345 | 13.53058 | 36455 ft | 389 kts | 29° |
| 2026-05-01 08:47 | 48.97127 | 13.56878 | 36450 ft | 389 kts | 28° |
| 2026-05-01 08:48 | 49.01935 | 13.60733 | 36465 ft | 390 kts | 28° |
| 2026-05-01 08:48 | 49.06732 | 13.64601 | 36466 ft | 390 kts | 28° |
| 2026-05-01 08:49 | 49.11494 | 13.68460 | 36463 ft | 390 kts | 28° |
| 2026-05-01 08:49 | 49.16288 | 13.72346 | 36466 ft | 390 kts | 28° |
| 2026-05-01 08:50 | 49.21084 | 13.76251 | 36467 ft | 391 kts | 28° |
| 2026-05-01 08:50 | 49.25873 | 13.80172 | 36467 ft | 391 kts | 29° |
| 2026-05-01 08:51 | 49.30673 | 13.84094 | 36470 ft | 391 kts | 28° |
| 2026-05-01 08:51 | 49.35437 | 13.87997 | 36470 ft | 391 kts | 29° |
| 2026-05-01 08:52 | 49.40234 | 13.91946 | 36467 ft | 391 kts | 29° |
| 2026-05-01 08:52 | 49.45025 | 13.95902 | 36464 ft | 391 kts | 29° |
| 2026-05-01 08:53 | 49.49819 | 13.99845 | 36462 ft | 390 kts | 29° |
| 2026-05-01 08:53 | 49.54562 | 14.03766 | 36461 ft | 390 kts | 29° |
| 2026-05-01 08:54 | 49.59339 | 14.07717 | 36456 ft | 389 kts | 29° |
| 2026-05-01 08:54 | 49.64104 | 14.11649 | 36459 ft | 388 kts | 28° |
| 2026-05-01 08:55 | 49.69038 | 14.15043 | 36456 ft | 388 kts | 24° |
| 2026-05-01 08:55 | 49.73982 | 14.18279 | 36462 ft | 389 kts | 24° |
| 2026-05-01 08:56 | 49.78957 | 14.21554 | 36463 ft | 389 kts | 24° |
| 2026-05-01 08:56 | 49.83932 | 14.24829 | 36469 ft | 388 kts | 24° |
| 2026-05-01 08:57 | 49.88901 | 14.28148 | 36474 ft | 389 kts | 24° |
| 2026-05-01 08:57 | 49.93832 | 14.31434 | 36447 ft | 387 kts | 24° |
| 2026-05-01 08:58 | 49.96305 | 14.33081 | 36049 ft | 387 kts | 24° |
| 2026-05-01 08:58 | 49.98779 | 14.34728 | 35750 ft | 387 kts | 24° |
| 2026-05-01 08:58 | 50.01246 | 14.36374 | 35488 ft | 385 kts | 24° |
| 2026-05-01 08:58 | 50.03705 | 14.38017 | 35234 ft | 383 kts | 24° |
| 2026-05-01 08:59 | 50.06148 | 14.39638 | 34986 ft | 381 kts | 24° |
| 2026-05-01 08:59 | 50.08585 | 14.41248 | 34714 ft | 379 kts | 24° |
| 2026-05-01 08:59 | 50.11009 | 14.42852 | 34469 ft | 378 kts | 24° |
| 2026-05-01 08:59 | 50.13388 | 14.44436 | 34205 ft | 376 kts | 24° |
| 2026-05-01 09:00 | 50.15786 | 14.46040 | 33923 ft | 374 kts | 24° |
| 2026-05-01 09:00 | 50.18170 | 14.47643 | 33649 ft | 372 kts | 24° |
| 2026-05-01 09:00 | 50.20546 | 14.49241 | 33374 ft | 371 kts | 25° |
| 2026-05-01 09:00 | 50.22909 | 14.50841 | 33105 ft | 369 kts | 25° |
| 2026-05-01 09:01 | 50.25263 | 14.52422 | 32836 ft | 368 kts | 25° |
| 2026-05-01 09:01 | 50.27611 | 14.54005 | 32569 ft | 367 kts | 25° |
| 2026-05-01 09:01 | 50.29949 | 14.55582 | 32316 ft | 366 kts | 25° |
| 2026-05-01 09:01 | 50.32247 | 14.57132 | 32062 ft | 364 kts | 25° |
| 2026-05-01 09:02 | 50.34568 | 14.58704 | 31801 ft | 363 kts | 25° |
| 2026-05-01 09:02 | 50.36880 | 14.60268 | 31545 ft | 361 kts | 25° |
| 2026-05-01 09:02 | 50.39186 | 14.61830 | 31294 ft | 360 kts | 25° |
| 2026-05-01 09:02 | 50.41480 | 14.63390 | 31042 ft | 359 kts | 25° |
| 2026-05-01 09:03 | 50.43763 | 14.64942 | 30798 ft | 357 kts | 25° |
| 2026-05-01 09:03 | 50.46039 | 14.66488 | 30551 ft | 356 kts | 25° |
| 2026-05-01 09:03 | 50.48308 | 14.68032 | 30269 ft | 355 kts | 25° |
| 2026-05-01 09:03 | 50.50575 | 14.69572 | 29987 ft | 353 kts | 25° |
| 2026-05-01 09:04 | 50.52792 | 14.71083 | 29700 ft | 352 kts | 25° |
| 2026-05-01 09:04 | 50.55034 | 14.72613 | 29420 ft | 350 kts | 25° |
| 2026-05-01 09:04 | 50.57260 | 14.74143 | 29138 ft | 348 kts | 25° |
| 2026-05-01 09:04 | 50.59478 | 14.75661 | 28860 ft | 347 kts | 25° |
| 2026-05-01 09:05 | 50.61680 | 14.77197 | 28593 ft | 345 kts | 27° |
| 2026-05-01 09:05 | 50.63727 | 14.79111 | 28322 ft | 342 kts | 37° |
| 2026-05-01 09:05 | 50.65498 | 14.81591 | 28059 ft | 340 kts | 47° |
| 2026-05-01 09:05 | 50.66919 | 14.84557 | 27781 ft | 339 kts | 57° |
| 2026-05-01 09:06 | 50.67946 | 14.87851 | 27546 ft | 340 kts | 66° |
| 2026-05-01 09:06 | 50.68778 | 14.91328 | 27282 ft | 338 kts | 67° |
| 2026-05-01 09:06 | 50.69586 | 14.94798 | 27018 ft | 336 kts | 67° |
| 2026-05-01 09:06 | 50.70394 | 14.98245 | 26768 ft | 334 kts | 67° |
| 2026-05-01 09:07 | 50.71204 | 15.01661 | 26515 ft | 332 kts | 67° |
| 2026-05-01 09:07 | 50.72013 | 15.05064 | 26271 ft | 330 kts | 67° |
| 2026-05-01 09:07 | 50.72813 | 15.08412 | 26024 ft | 328 kts | 67° |
| 2026-05-01 09:07 | 50.73623 | 15.11815 | 25776 ft | 327 kts | 67° |
| 2026-05-01 09:08 | 50.74408 | 15.15116 | 25537 ft | 325 kts | 67° |
| 2026-05-01 09:08 | 50.75200 | 15.18447 | 25291 ft | 324 kts | 67° |
| 2026-05-01 09:08 | 50.75989 | 15.21763 | 25056 ft | 322 kts | 67° |
| 2026-05-01 09:08 | 50.76773 | 15.25064 | 24821 ft | 320 kts | 67° |
| 2026-05-01 09:09 | 50.77549 | 15.28349 | 24580 ft | 319 kts | 67° |
| 2026-05-01 09:09 | 50.78323 | 15.31625 | 24341 ft | 317 kts | 67° |
| 2026-05-01 09:09 | 50.79091 | 15.34881 | 24103 ft | 316 kts | 67° |
| 2026-05-01 09:09 | 50.79800 | 15.38170 | 23850 ft | 316 kts | 70° |
| 2026-05-01 09:10 | 50.80431 | 15.41483 | 23575 ft | 314 kts | 70° |
| 2026-05-01 09:10 | 50.81043 | 15.44743 | 23306 ft | 313 kts | 70° |
| 2026-05-01 09:10 | 50.81660 | 15.48027 | 23032 ft | 311 kts | 70° |
| 2026-05-01 09:10 | 50.82274 | 15.51303 | 22766 ft | 310 kts | 70° |
| 2026-05-01 09:11 | 50.82883 | 15.54559 | 22508 ft | 308 kts | 71° |
| 2026-05-01 09:11 | 50.83490 | 15.57809 | 22248 ft | 307 kts | 70° |
| 2026-05-01 09:11 | 50.84095 | 15.61041 | 21986 ft | 306 kts | 70° |
| 2026-05-01 09:11 | 50.84699 | 15.64267 | 21727 ft | 305 kts | 70° |
| 2026-05-01 09:12 | 50.85297 | 15.67474 | 21470 ft | 303 kts | 71° |
| 2026-05-01 09:12 | 50.85883 | 15.70633 | 21219 ft | 302 kts | 71° |
| 2026-05-01 09:12 | 50.86466 | 15.73790 | 20970 ft | 302 kts | 71° |
| 2026-05-01 09:12 | 50.87060 | 15.76995 | 20710 ft | 300 kts | 71° |
| 2026-05-01 09:13 | 50.87645 | 15.80160 | 20465 ft | 299 kts | 71° |
| 2026-05-01 09:13 | 50.88227 | 15.83307 | 20214 ft | 297 kts | 71° |
| 2026-05-01 09:13 | 50.88804 | 15.86442 | 19969 ft | 296 kts | 71° |
| 2026-05-01 09:13 | 50.89378 | 15.89569 | 19729 ft | 296 kts | 71° |
| 2026-05-01 09:14 | 50.89954 | 15.92692 | 19492 ft | 295 kts | 71° |
| 2026-05-01 09:14 | 50.90525 | 15.95802 | 19260 ft | 293 kts | 71° |
| 2026-05-01 09:14 | 50.91082 | 15.98858 | 19019 ft | 292 kts | 71° |
| 2026-05-01 09:14 | 50.91642 | 16.01942 | 18788 ft | 291 kts | 71° |
| 2026-05-01 09:15 | 50.92201 | 16.05023 | 18535 ft | 290 kts | 71° |
| 2026-05-01 09:15 | 50.92706 | 16.08114 | 18260 ft | 291 kts | 77° |
| 2026-05-01 09:15 | 50.92793 | 16.11332 | 17991 ft | 295 kts | 88° |
| 2026-05-01 09:15 | 50.92659 | 16.14571 | 17731 ft | 294 kts | 89° |
| 2026-05-01 09:16 | 50.92513 | 16.17803 | 17470 ft | 293 kts | 89° |
| 2026-05-01 09:16 | 50.92371 | 16.21015 | 17211 ft | 292 kts | 89° |
| 2026-05-01 09:16 | 50.92234 | 16.24184 | 16954 ft | 291 kts | 89° |
| 2026-05-01 09:17 | 50.91966 | 16.30560 | 16446 ft | 289 kts | 89° |
| 2026-05-01 09:17 | 50.91834 | 16.33737 | 16195 ft | 288 kts | 89° |
| 2026-05-01 09:17 | 50.91571 | 16.40062 | 15695 ft | 287 kts | 89° |
| 2026-05-01 09:18 | 50.91439 | 16.43211 | 15449 ft | 286 kts | 89° |
| 2026-05-01 09:18 | 50.91207 | 16.49448 | 14965 ft | 283 kts | 85° |
| 2026-05-01 09:19 | 50.91330 | 16.55652 | 14485 ft | 281 kts | 83° |
| 2026-05-01 09:19 | 50.91405 | 16.58740 | 14248 ft | 280 kts | 83° |
| 2026-05-01 09:19 | 50.91478 | 16.61819 | 13982 ft | 280 kts | 83° |
| 2026-05-01 09:20 | 50.91620 | 16.67968 | 13450 ft | 279 kts | 83° |
| 2026-05-01 09:20 | 50.91755 | 16.74051 | 12939 ft | 277 kts | 83° |
| 2026-05-01 09:21 | 50.91865 | 16.79159 | 12509 ft | 277 kts | 83° |
| 2026-05-01 09:21 | 50.91950 | 16.83188 | 12178 ft | 276 kts | 83° |
| 2026-05-01 09:21 | 50.92074 | 16.89262 | 11682 ft | 275 kts | 83° |
| 2026-05-01 09:22 | 50.92194 | 16.95304 | 11163 ft | 273 kts | 84° |
| 2026-05-01 09:22 | 50.92312 | 17.01295 | 10568 ft | 271 kts | 84° |
| 2026-05-01 09:23 | 50.92370 | 17.04242 | 10256 ft | 271 kts | 84° |
| 2026-05-01 09:23 | 50.92482 | 17.10209 | 9546 ft | 272 kts | 84° |
| 2026-05-01 09:24 | 50.91672 | 17.16090 | 8850 ft | 282 kts | 111° |
| 2026-05-01 09:24 | 50.90787 | 17.18859 | 8505 ft | 282 kts | 112° |
| 2026-05-01 09:24 | 50.89022 | 17.24370 | 7874 ft | 278 kts | 112° |
| 2026-05-01 09:25 | 50.87365 | 17.29520 | 7802 ft | 247 kts | 112° |
| 2026-05-01 09:25 | 50.85999 | 17.34316 | 7801 ft | 233 kts | 94° |
| 2026-05-01 09:26 | 50.86213 | 17.36752 | 7840 ft | 223 kts | 58° |
| 2026-05-01 09:26 | 50.88571 | 17.39610 | 7812 ft | 217 kts | 22° |
| 2026-05-01 09:26 | 50.89962 | 17.40560 | 7813 ft | 218 kts | 24° |
| 2026-05-01 09:27 | 50.92867 | 17.41414 | 7399 ft | 218 kts | 346° |
| 2026-05-01 09:27 | 50.94170 | 17.40246 | 7076 ft | 223 kts | 319° |
| 2026-05-01 09:27 | 50.95046 | 17.38185 | 6721 ft | 228 kts | 300° |
| 2026-05-01 09:28 | 50.95713 | 17.35920 | 6426 ft | 226 kts | 300° |
| 2026-05-01 09:28 | 50.96404 | 17.33687 | 6202 ft | 225 kts | 301° |
| 2026-05-01 09:28 | 50.97096 | 17.31473 | 5987 ft | 224 kts | 300° |
| 2026-05-01 09:28 | 50.97778 | 17.29261 | 5755 ft | 222 kts | 300° |
| 2026-05-01 09:29 | 50.99128 | 17.24874 | 5239 ft | 220 kts | 300° |
| 2026-05-01 09:29 | 50.99787 | 17.22733 | 4959 ft | 218 kts | 300° |
| 2026-05-01 09:30 | 51.01115 | 17.18414 | 4382 ft | 218 kts | 300° |
| 2026-05-01 09:30 | 51.01777 | 17.16260 | 4113 ft | 215 kts | 300° |
| 2026-05-01 09:30 | 51.03068 | 17.12058 | 3527 ft | 204 kts | 299° |
| 2026-05-01 09:31 | 51.03671 | 17.10091 | 3258 ft | 190 kts | 299° |
| 2026-05-01 09:31 | 51.04225 | 17.08287 | 3025 ft | 175 kts | 298° |
| 2026-05-01 09:31 | 51.05253 | 17.04940 | 2529 ft | 167 kts | 298° |
| 2026-05-01 09:32 | 51.05754 | 17.03306 | 2348 ft | 161 kts | 298° |
| 2026-05-01 09:32 | 51.06701 | 17.00219 | 1878 ft | 149 kts | 297° |
| 2026-05-01 09:32 | 51.07140 | 16.98789 | 1671 ft | 136 kts | 298° |
| 2026-05-01 09:33 | 51.07552 | 16.97445 | 1490 ft | 136 kts | 298° |
| 2026-05-01 09:33 | 51.07966 | 16.96103 | 1327 ft | 134 kts | 297° |
| 2026-05-01 09:33 | 51.08773 | 16.93432 | 946 ft | 134 kts | 296° |
| 2026-05-01 09:34 | 51.09183 | 16.92119 | 746 ft | 132 kts | 296° |
| 2026-05-01 09:34 | 51.09578 | 16.90803 | 629 ft | 132 kts | 295° |
| 2026-05-01 09:34 | 51.10364 | 16.88268 | 422 ft | 110 kts | 297° |
| 2026-05-01 09:35 | 51.10477 | 16.87900 | 414 ft | 4 kts | 296° |
| 2026-05-01 09:35 | 51.10561 | 16.87629 | 416 ft | 39 kts | 296° |
| 2026-05-01 09:35 | 51.10675 | 16.87266 | 416 ft | 30 kts | 303° |
| 2026-05-01 09:36 | 51.10755 | 16.87268 | 425 ft | 14 kts | 31° |
| 2026-05-01 09:36 | 51.10851 | 16.87355 | 426 ft | 17 kts | 28° |
| 2026-05-01 09:36 | 51.10939 | 16.87463 | 423 ft | 12 kts | 73° |
| 2026-05-01 09:36 | 51.10914 | 16.87597 | 427 ft | 14 kts | 116° |
| 2026-05-01 09:37 | 51.10871 | 16.87725 | 417 ft | 12 kts | 117° |
| 2026-05-01 09:37 | 51.10883 | 16.87870 | 427 ft | 2 kts | 29° |
| 2026-05-01 09:37 | 51.10886 | 16.87872 | 427 ft | 0 kts | 29° |
| 2026-05-01 09:38 | 51.10889 | 16.87875 | 427 ft | 2 kts | 26° |
| 2026-05-01 09:38 | 51.10898 | 16.87882 | 421 ft | 1 kts | 26° |
| 2026-05-01 09:38 | 51.10904 | 16.87887 | 423 ft | 0 kts | 26° |